Marcellus, MI (49067)

12:12 PM EDT on August 24, 2016 (GMT -0400)
Farming/Agriculture | | Change Station

Elev 864 ft 42.05 °N, 85.91 °W | Updated 27 seconds ago

Overcast
Overcast
75.4 °F
Feels Like 76 °F
N
2.0
Wind Variable Wind from SSW
Gusts 6.0 mph

Today
High -- | Low -- °F
--% Chance of Precip.
Yesterday
High -- | Low -- °F
Precip. -- in
Pressure 30.06 in
Visibility 10.0 miles
Clouds Overcast 1700 ft
Heat Index 76 °F
Dew Point 70 °F
Humidity 83%
Rainfall 0.00 in
Snow Depth Not available.
7:01 AM 8:29 PM
Waning Gibbous, 55% visible
METAR KHAI 241555Z AUTO 22010G14KT 10SM OVC017 25/21 A3006 RMK AO2 T02470210
Pressure 30.06 in
Visibility 10.0 miles
Clouds Overcast 1700 ft
Heat Index 76 °F
Dew Point 70 °F
Humidity 83%
Rainfall 0.00 in
Snow Depth Not available.
7:01 AM 8:29 PM
Waning Gibbous, 55% visible
METAR KHAI 241555Z AUTO 22010G14KT 10SM OVC017 25/21 A3006 RMK AO2 T02470210

10-Day Weather Forecast

Almanac

Astronomy

Aug. 24, 2016 Rise Set
Actual Time
Civil Twilight
Nautical Twilight
Astronomical Twilight
Moon
Length of Visible Light
Length of Day
Tomorrow will be .
, % of the Moon is Illuminated

Today's Extremes

State Highs State Lows

Community

WunderPhotos

Upload Photos

1,934,648 photos uploaded!

WunderBlog® & News

Nearby

Air Quality

  Air Quality AQ Index Pollutant
Not available.

Snow Depth

Station Depth Elevation

Earthquake Activity

City Distance Mag. Time & Date
Minimum magnitude displayed is 2.5.

Coastal Water Temperatures

Place Temperature

Stations

Nearby Weather Stations

Station Location Temp. Windchill Dew Point Humidity Wind Precip. Elev Updated Type
                   

Watches & Warnings

There are currently no watches in effect.